Saint Louis, Oklahoma
Current Conditions -  °F | °C
As of 2:35 AM on Friday 19 Dec 2014 (Local Time) from KSNL Reporting Station
Moderate Fog Moderate Fog  
Wind Chill: 43°   Ceiling: 200
Heat Index: 43°   Visibility: 0.5mi
Dew Point: 43°   Wind: 3mph
Humidity: 100%   Direction: 30°NNE
Pressure: 30.22"   Gusts: NA
Location:  35.07°N, 96.85°W
Report Text: KSNL 190835Z AUTO 03003KT 1/2SM FG OVC002 06/06 A3022 RMK AO2 LTG DSNT S
Loading
Personal Weather Stations






























Interactive Weather Map New forecast layout! Learn more

10-Day Weather Forecast

Advertisements
Track Severe Weather on mobile